Time;durP1;ratioP1;P1;durP2;ratioP2;P2;SDS_P1;SDS_P2;PMS_P1;PMS_P2;Temp;Humidity;BMP_temperature;BMP_pressure;BME280_temperature;BME280_humidity;BME280_pressure;Samples;Min_cycle;Max_cycle;Signal;HPM_P1;HPM_P2
2022/01/08 00:02:05;;;;;;;0.52;0.45;;;13.90;64.30;;;;;;5016327;28;20080;-21
2022/01/08 00:04:31;;;;;;;0.43;0.40;;;13.90;64.40;;;;;;5017107;28;20502;-20
2022/01/08 00:06:56;;;;;;;0.73;0.50;;;13.90;64.40;;;;;;5016241;28;20042;-21
2022/01/08 00:09:22;;;;;;;0.63;0.35;;;13.90;64.40;;;;;;5016177;28;20053;-19
2022/01/08 00:11:48;;;;;;;0.52;0.50;;;13.90;64.30;;;;;;5017235;28;20478;-21
2022/01/08 00:14:15;;;;;;;0.50;0.30;;;13.90;64.40;;;;;;5016218;28;20042;-21
2022/01/08 00:16:40;;;;;;;0.82;0.68;;;13.90;64.50;;;;;;5017017;28;20072;-22
2022/01/08 00:19:06;;;;;;;0.65;0.52;;;13.90;64.40;;;;;;5016393;28;20043;-21
2022/01/08 00:21:32;;;;;;;0.90;0.65;;;13.90;64.30;;;;;;5017016;28;20104;-21
2022/01/08 00:23:58;;;;;;;0.50;0.38;;;13.90;64.40;;;;;;5015670;28;20046;-20
2022/01/08 00:26:23;;;;;;;0.50;0.43;;;13.90;64.40;;;;;;5015154;28;20140;-22
2022/01/08 00:28:49;;;;;;;0.45;0.43;;;13.90;64.30;;;;;;5016881;28;20066;-22
2022/01/08 00:31:15;;;;;;;0.40;0.40;;;13.90;64.30;;;;;;5035357;28;20053;-21
2022/01/08 00:33:40;;;;;;;0.60;0.50;;;13.90;64.20;;;;;;5036507;28;20045;-21
2022/01/08 00:36:06;;;;;;;0.98;0.40;;;13.90;64.30;;;;;;5036317;28;20033;-22
2022/01/08 00:38:32;;;;;;;0.60;0.47;;;13.90;64.20;;;;;;5035991;28;20037;-21
2022/01/08 00:40:57;;;;;;;0.65;0.40;;;13.90;64.40;;;;;;5036155;28;20045;-21
2022/01/08 00:43:23;;;;;;;0.43;0.43;;;13.90;64.30;;;;;;5035593;28;20041;-21
2022/01/08 00:45:48;;;;;;;0.60;0.38;;;13.90;64.30;;;;;;5035974;28;20046;-22
2022/01/08 00:48:14;;;;;;;0.57;0.50;;;13.90;64.40;;;;;;5035704;28;20064;-19
2022/01/08 00:50:40;;;;;;;0.30;0.30;;;13.90;64.30;;;;;;5036358;28;20052;-20
2022/01/08 00:53:05;;;;;;;0.75;0.40;;;14.00;64.30;;;;;;5036257;28;20037;-20
2022/01/08 00:55:31;;;;;;;0.55;0.40;;;13.90;64.30;;;;;;5035187;28;20045;-20
2022/01/08 00:57:56;;;;;;;0.70;0.50;;;13.90;64.30;;;;;;5018402;28;20508;-21
2022/01/08 01:00:22;;;;;;;0.65;0.63;;;13.90;64.40;;;;;;5016067;28;20140;-20
2022/01/08 01:02:48;;;;;;;0.65;0.60;;;13.90;64.60;;;;;;5015631;28;20262;-20
2022/01/08 01:05:13;;;;;;;0.55;0.50;;;13.90;64.60;;;;;;5030973;28;20105;-21
2022/01/08 01:07:39;;;;;;;0.50;0.45;;;13.90;64.60;;;;;;5016824;28;20134;-19
2022/01/08 01:10:05;;;;;;;0.82;0.70;;;13.90;64.30;;;;;;5016138;28;20109;-21
2022/01/08 01:12:31;;;;;;;0.70;0.60;;;13.90;64.40;;;;;;5016015;28;20105;-22
2022/01/08 01:14:56;;;;;;;0.57;0.45;;;13.90;64.30;;;;;;5016584;28;20073;-21
2022/01/08 01:17:22;;;;;;;0.63;0.57;;;13.90;64.50;;;;;;5015746;28;20046;-20
2022/01/08 01:19:48;;;;;;;1.08;0.60;;;13.90;64.40;;;;;;5014916;28;20056;-20
2022/01/08 01:22:18;;;;;;;1.08;0.70;;;13.90;64.40;;;;;;5015568;28;20046;-19
2022/01/08 01:24:44;;;;;;;0.47;0.32;;;13.90;64.40;;;;;;5016339;28;20053;-21
2022/01/08 01:30:04;;;;;;;0.73;0.50;;;13.90;64.50;;;;;;5024698;28;20056;-21
2022/01/08 01:46:59;;;;;;;0.80;0.70;;;13.90;64.40;;;;;;5035168;28;20072;-22
2022/01/08 01:48:56;;;;;;;0.90;0.60;;;13.90;64.40;;;;;;5035281;28;20056;-22
2022/01/08 01:51:23;;;;;;;0.55;0.52;;;13.90;64.40;;;;;;5035141;28;20041;-22
2022/01/08 01:53:49;;;;;;;0.68;0.52;;;13.90;64.30;;;;;;5035630;28;20034;-22
2022/01/08 01:56:15;;;;;;;0.40;0.35;;;13.90;64.30;;;;;;5034807;28;20037;-22
2022/01/08 01:58:41;;;;;;;0.80;0.47;;;13.90;64.50;;;;;;5050850;28;20029;-20
2022/01/08 02:01:06;;;;;;;0.55;0.50;;;13.90;64.50;;;;;;5035750;28;20045;-21
2022/01/08 02:03:32;;;;;;;1.27;0.70;;;13.90;64.50;;;;;;5045264;28;20128;-22
2022/01/08 02:05:58;;;;;;;0.85;0.60;;;13.90;64.50;;;;;;5015175;28;20068;-22
2022/01/08 02:08:23;;;;;;;1.02;0.65;;;13.90;64.40;;;;;;5014752;28;20038;-19
2022/01/08 02:10:49;;;;;;;1.17;0.57;;;13.90;64.40;;;;;;5015574;28;20046;-20
2022/01/08 02:13:22;;;;;;;0.73;0.40;;;13.90;64.40;;;;;;5014956;28;20064;-22
2022/01/08 02:15:51;;;;;;;0.75;0.40;;;13.90;64.40;;;;;;5015740;28;20584;-22
2022/01/08 02:18:17;;;;;;;1.70;0.90;;;13.90;64.40;;;;;;5014954;28;20049;-21
2022/01/08 02:20:43;;;;;;;0.60;0.57;;;13.90;64.60;;;;;;5015616;28;20045;-21
2022/01/08 02:23:08;;;;;;;1.83;1.48;;;13.90;64.50;;;;;;5015611;28;20596;-22
2022/01/08 02:25:34;;;;;;;0.60;0.50;;;13.90;64.50;;;;;;5014824;28;20074;-22
2022/01/08 02:28:03;;;;;;;0.50;0.50;;;13.90;64.60;;;;;;5015499;28;20042;-19
2022/01/08 02:30:29;;;;;;;0.93;0.85;;;13.90;64.60;;;;;;5029994;28;20049;-22
2022/01/08 02:32:54;;;;;;;0.60;0.50;;;13.90;64.50;;;;;;5039357;28;20071;-19
2022/01/08 02:35:22;;;;;;;0.85;0.50;;;13.90;64.50;;;;;;5038817;28;20049;-20
2022/01/08 02:37:50;;;;;;;0.45;0.40;;;13.90;64.40;;;;;;5039314;28;20052;-19
2022/01/08 02:40:18;;;;;;;0.63;0.50;;;13.90;64.50;;;;;;5038456;28;20124;-22
2022/01/08 02:42:51;;;;;;;0.50;0.40;;;13.90;64.50;;;;;;5039244;28;20135;-21
2022/01/08 02:45:17;;;;;;;1.15;0.70;;;13.90;64.50;;;;;;5038524;28;20045;-19
2022/01/08 02:47:44;;;;;;;0.95;0.60;;;13.90;64.60;;;;;;5038930;28;20048;-20
2022/01/08 02:50:09;;;;;;;0.77;0.60;;;13.90;64.60;;;;;;5038901;28;20041;-21
2022/01/08 02:52:39;;;;;;;2.40;1.10;;;13.90;64.50;;;;;;5025307;28;20572;-21
2022/01/08 02:55:05;;;;;;;0.70;0.60;;;13.90;64.40;;;;;;5018963;28;20109;-22
2022/01/08 02:57:30;;;;;;;1.20;0.70;;;13.90;64.50;;;;;;5018458;28;20052;-22
2022/01/08 02:59:56;;;;;;;0.80;0.60;;;13.80;64.60;;;;;;5019139;28;20128;-21
2022/01/08 03:02:22;;;;;;;1.00;0.80;;;13.80;64.60;;;;;;5018516;28;20042;-21
2022/01/08 03:04:52;;;;;;;0.93;0.90;;;13.90;64.60;;;;;;5018972;28;20415;-21
2022/01/08 03:07:18;;;;;;;1.80;0.80;;;13.90;64.70;;;;;;5018408;28;20038;-22
2022/01/08 03:09:45;;;;;;;1.40;0.77;;;13.80;64.70;;;;;;5018425;28;20060;-22
2022/01/08 03:12:11;;;;;;;0.93;0.60;;;13.80;64.60;;;;;;5018835;28;20045;-21
2022/01/08 03:14:36;;;;;;;0.98;0.90;;;13.80;64.70;;;;;;5018212;28;20080;-21
2022/01/08 03:17:02;;;;;;;1.35;0.80;;;13.90;64.60;;;;;;5018690;28;20561;-22
2022/01/08 03:19:28;;;;;;;0.65;0.55;;;13.90;64.60;;;;;;5018305;28;20121;-20
2022/01/08 03:21:55;;;;;;;0.98;0.45;;;13.90;64.60;;;;;;5018666;28;20490;-20
2022/01/08 03:24:27;;;;;;;0.93;0.77;;;13.90;64.50;;;;;;5017757;28;20048;-21
2022/01/08 03:26:53;;;;;;;1.25;0.85;;;13.90;64.50;;;;;;5017098;28;20498;-19
2022/01/08 03:29:19;;;;;;;1.10;0.70;;;13.80;64.60;;;;;;5021243;28;20095;-23
2022/01/08 03:31:44;;;;;;;1.88;0.70;;;13.80;64.70;;;;;;5038143;28;20053;-22
2022/01/08 03:34:10;;;;;;;1.73;0.60;;;13.80;64.60;;;;;;5038270;28;20037;-22
2022/01/08 03:36:36;;;;;;;0.90;0.77;;;13.80;64.60;;;;;;5028610;28;20529;-20
2022/01/08 03:39:01;;;;;;;1.15;0.88;;;13.80;64.60;;;;;;5018264;28;20140;-22
2022/01/08 03:41:27;;;;;;;1.15;1.00;;;13.90;64.60;;;;;;5015264;28;20052;-22
2022/01/08 03:43:53;;;;;;;1.35;0.85;;;13.90;64.60;;;;;;5017729;28;20414;-22
2022/01/08 03:46:20;;;;;;;0.80;0.57;;;13.90;64.40;;;;;;5017496;28;20037;-21
2022/01/08 03:48:57;;;;;;;1.27;0.73;;;13.90;64.60;;;;;;5018203;28;20466;-20
2022/01/08 03:51:23;;;;;;;0.63;0.60;;;13.90;64.50;;;;;;5016431;28;20042;-22
2022/01/08 03:53:48;;;;;;;1.00;0.88;;;13.90;64.40;;;;;;5018165;28;20072;-22
2022/01/08 03:56:14;;;;;;;0.98;0.70;;;13.80;64.60;;;;;;5017830;28;20061;-22
2022/01/08 03:58:40;;;;;;;1.25;0.60;;;13.80;64.60;;;;;;5017455;28;20181;-22
2022/01/08 04:01:05;;;;;;;0.85;0.80;;;13.80;64.60;;;;;;5018122;28;20410;-20
2022/01/08 04:03:31;;;;;;;1.38;0.70;;;13.80;64.60;;;;;;5017205;28;20038;-20
2022/01/08 04:05:56;;;;;;;0.95;0.68;;;13.90;64.60;;;;;;5017851;28;20523;-20
2022/01/08 04:08:22;;;;;;;0.93;0.70;;;13.90;64.50;;;;;;5017189;28;20406;-21
2022/01/08 04:10:48;;;;;;;0.80;0.70;;;13.90;64.40;;;;;;5017443;28;20045;-21
2022/01/08 04:13:18;;;;;;;1.73;0.98;;;13.90;64.50;;;;;;5017858;28;20092;-21
2022/01/08 04:15:46;;;;;;;0.95;0.80;;;13.90;64.50;;;;;;5017226;28;20046;-21
2022/01/08 04:18:11;;;;;;;0.70;0.70;;;13.90;64.60;;;;;;5016367;28;20408;-20
2022/01/08 04:20:50;;;;;;;1.13;0.80;;;13.90;64.60;;;;;;5016763;28;20148;-22
2022/01/08 04:23:20;;;;;;;1.08;0.80;;;13.90;64.60;;;;;;5017527;28;20060;-20
2022/01/08 04:25:45;;;;;;;1.02;0.75;;;13.80;64.60;;;;;;5016791;28;20471;-22
2022/01/08 04:28:11;;;;;;;1.10;0.52;;;13.80;64.70;;;;;;5017401;28;20129;-22
2022/01/08 04:30:37;;;;;;;1.02;1.00;;;13.80;64.70;;;;;;5030778;28;20100;-19
2022/01/08 04:33:02;;;;;;;1.05;0.70;;;13.80;64.80;;;;;;5037184;28;20041;-21
2022/01/08 04:35:28;;;;;;;0.93;0.60;;;13.80;64.80;;;;;;5036587;28;20124;-20
2022/01/08 04:37:53;;;;;;;1.15;0.70;;;13.80;64.90;;;;;;5018281;28;20518;-20
2022/01/08 04:40:19;;;;;;;1.33;0.70;;;13.80;64.80;;;;;;5016332;28;20045;-18
2022/01/08 04:42:44;;;;;;;0.88;0.70;;;13.70;64.80;;;;;;5017149;28;20050;-22
2022/01/08 04:45:11;;;;;;;1.13;0.70;;;13.80;64.90;;;;;;5017159;28;20042;-22
2022/01/08 04:47:36;;;;;;;0.90;0.80;;;13.80;64.80;;;;;;5016467;28;20506;-22
2022/01/08 04:50:02;;;;;;;1.38;0.82;;;13.70;64.90;;;;;;5017006;28;20500;-20
2022/01/08 04:52:28;;;;;;;1.30;0.70;;;13.80;64.90;;;;;;5016071;28;20526;-22
2022/01/08 04:54:54;;;;;;;1.00;0.77;;;13.80;64.70;;;;;;5016933;28;20062;-21
2022/01/08 04:57:19;;;;;;;0.82;0.70;;;13.90;64.70;;;;;;5016165;28;20044;-22
2022/01/08 04:59:45;;;;;;;1.10;0.70;;;13.80;64.60;;;;;;5016019;28;20041;-22
2022/01/08 05:02:10;;;;;;;1.40;0.70;;;13.80;64.60;;;;;;5017487;28;20502;-21
2022/01/08 05:04:36;;;;;;;0.95;0.80;;;13.80;64.70;;;;;;5014665;28;20038;-22
2022/01/08 05:07:02;;;;;;;0.90;0.70;;;13.80;64.80;;;;;;5016750;28;20517;-19
2022/01/08 05:09:27;;;;;;;1.05;0.75;;;13.80;64.60;;;;;;5015692;28;20045;-21
2022/01/08 05:11:53;;;;;;;1.20;0.80;;;13.80;64.60;;;;;;5016617;28;20048;-22
2022/01/08 05:14:18;;;;;;;0.80;0.80;;;13.80;64.80;;;;;;5016732;28;20045;-22
2022/01/08 05:16:45;;;;;;;0.73;0.60;;;13.80;64.70;;;;;;5016207;28;20073;-22
2022/01/08 05:19:11;;;;;;;1.20;0.88;;;13.90;64.60;;;;;;5016561;28;20523;-19
2022/01/08 05:21:38;;;;;;;0.75;0.60;;;13.80;64.70;;;;;;5015719;28;20411;-20
2022/01/08 05:24:04;;;;;;;0.55;0.52;;;13.80;64.80;;;;;;5016220;28;20042;-20
2022/01/08 05:26:30;;;;;;;1.08;0.77;;;13.80;64.60;;;;;;5015701;28;20050;-22
2022/01/08 05:28:56;;;;;;;0.93;0.80;;;13.80;64.60;;;;;;5016532;28;20099;-23
2022/01/08 05:31:23;;;;;;;1.05;0.70;;;13.80;64.80;;;;;;5014431;28;20411;-22
2022/01/08 05:33:49;;;;;;;0.77;0.75;;;13.80;64.80;;;;;;5012223;28;20096;-21
2022/01/08 05:36:14;;;;;;;1.02;0.93;;;13.70;65.00;;;;;;5014653;28;20129;-20
2022/01/08 05:38:40;;;;;;;1.30;0.70;;;13.70;65.00;;;;;;5014828;28;20129;-21
2022/01/08 05:41:06;;;;;;;1.65;0.77;;;13.80;65.00;;;;;;5015940;28;20042;-22
2022/01/08 05:43:31;;;;;;;0.77;0.70;;;13.80;64.90;;;;;;5015382;28;20125;-20
2022/01/08 05:45:57;;;;;;;0.93;0.52;;;13.80;64.70;;;;;;5016137;28;20038;-22
2022/01/08 05:48:26;;;;;;;1.27;0.60;;;13.80;64.60;;;;;;5014880;28;20041;-20
2022/01/08 05:50:51;;;;;;;1.02;0.70;;;13.80;64.70;;;;;;5015799;28;20042;-21
2022/01/08 05:53:17;;;;;;;1.27;0.80;;;13.80;64.80;;;;;;5015325;28;20042;-20
2022/01/08 05:55:43;;;;;;;0.80;0.57;;;13.80;64.70;;;;;;5015135;28;20124;-20
2022/01/08 05:58:09;;;;;;;1.45;0.60;;;13.80;64.60;;;;;;5015738;28;20041;-20
2022/01/08 06:00:34;;;;;;;1.02;0.77;;;13.80;64.60;;;;;;5015410;28;20052;-22
2022/01/08 06:03:00;;;;;;;0.80;0.77;;;13.80;64.70;;;;;;5015912;28;20069;-22
2022/01/08 06:05:25;;;;;;;1.50;0.98;;;13.80;64.60;;;;;;5014426;28;20050;-22
2022/01/08 06:07:51;;;;;;;0.88;0.73;;;13.80;64.70;;;;;;5015113;28;20053;-19
2022/01/08 06:10:18;;;;;;;0.50;0.50;;;13.80;64.60;;;;;;5015198;28;20056;-22
2022/01/08 06:12:44;;;;;;;1.58;0.88;;;13.80;64.60;;;;;;5015223;28;20143;-22
2022/01/08 06:15:10;;;;;;;1.00;0.82;;;13.80;64.60;;;;;;5015748;28;20046;-22
2022/01/08 06:17:36;;;;;;;1.20;0.70;;;13.80;64.70;;;;;;5013741;28;20061;-20
2022/01/08 06:20:02;;;;;;;2.05;0.88;;;13.80;64.70;;;;;;5013924;28;20045;-21
2022/01/08 06:22:28;;;;;;;0.98;0.63;;;13.80;64.70;;;;;;5013691;28;20471;-20
2022/01/08 06:24:53;;;;;;;0.60;0.57;;;13.80;64.70;;;;;;5012667;28;20073;-21
2022/01/08 06:27:19;;;;;;;1.02;0.77;;;13.80;64.80;;;;;;5013786;28;20099;-21
2022/01/08 06:29:44;;;;;;;1.25;0.60;;;13.80;64.90;;;;;;5013585;28;20069;-21
2022/01/08 06:32:10;;;;;;;0.98;0.90;;;13.80;64.80;;;;;;5014340;28;20116;-22
2022/01/08 06:34:37;;;;;;;1.02;0.80;;;13.80;64.80;;;;;;5013249;28;20045;-21
2022/01/08 06:37:03;;;;;;;1.45;0.80;;;13.80;64.90;;;;;;5014089;28;20038;-21
2022/01/08 06:39:28;;;;;;;1.00;0.75;;;13.80;64.70;;;;;;5012920;28;20506;-20
2022/01/08 06:41:54;;;;;;;1.05;0.63;;;13.80;64.70;;;;;;5013776;28;20137;-21
2022/01/08 06:44:20;;;;;;;1.40;0.82;;;13.80;64.80;;;;;;5013792;28;20184;-21
2022/01/08 06:46:45;;;;;;;1.23;0.77;;;13.80;64.70;;;;;;5013487;28;20072;-20
2022/01/08 06:49:12;;;;;;;1.15;0.68;;;13.80;64.70;;;;;;5014081;28;20033;-21
2022/01/08 06:51:38;;;;;;;1.08;0.80;;;13.80;64.70;;;;;;5013597;28;20506;-22
2022/01/08 06:54:03;;;;;;;0.65;0.50;;;13.80;64.90;;;;;;5013939;28;20392;-22
2022/01/08 06:56:29;;;;;;;1.08;0.77;;;13.80;64.90;;;;;;5013232;28;20066;-19
2022/01/08 06:58:55;;;;;;;1.17;0.70;;;13.80;64.90;;;;;;5013975;28;20376;-20
2022/01/08 07:01:21;;;;;;;0.77;0.50;;;13.80;64.90;;;;;;5013631;28;20088;-22
2022/01/08 07:03:47;;;;;;;1.05;0.70;;;13.80;64.90;;;;;;5012814;28;20060;-23
2022/01/08 07:06:12;;;;;;;0.93;0.77;;;13.80;64.70;;;;;;5013989;28;20033;-22
2022/01/08 07:08:38;;;;;;;0.93;0.82;;;13.80;64.80;;;;;;5012828;28;20192;-19
2022/01/08 07:11:04;;;;;;;0.70;0.47;;;13.70;64.80;;;;;;5013696;28;20044;-21
2022/01/08 07:13:29;;;;;;;0.80;0.65;;;13.80;64.80;;;;;;5013252;28;20494;-21
2022/01/08 07:15:55;;;;;;;0.88;0.50;;;13.80;64.80;;;;;;5014671;28;20045;-22
2022/01/08 07:18:20;;;;;;;0.90;0.63;;;13.80;64.80;;;;;;5017523;28;20046;-23
2022/01/08 07:20:46;;;;;;;1.38;0.98;;;13.80;64.80;;;;;;5016677;28;20072;-21
2022/01/08 07:23:12;;;;;;;0.80;0.70;;;13.80;64.80;;;;;;5017603;28;20476;-22
2022/01/08 07:25:37;;;;;;;1.10;0.70;;;13.80;64.90;;;;;;5016669;28;20069;-21
2022/01/08 07:28:03;;;;;;;1.20;0.60;;;13.80;64.90;;;;;;5017152;28;20042;-22
2022/01/08 07:30:29;;;;;;;0.82;0.55;;;13.70;64.90;;;;;;5016321;28;20545;-23
2022/01/08 07:32:54;;;;;;;1.02;0.77;;;13.70;64.80;;;;;;5017199;28;20049;-22
2022/01/08 07:35:22;;;;;;;0.85;0.70;;;13.80;64.80;;;;;;5016831;28;20064;-21
2022/01/08 07:37:48;;;;;;;1.02;0.88;;;13.80;64.80;;;;;;5016355;28;20522;-23
2022/01/08 07:40:14;;;;;;;0.95;0.68;;;13.80;64.70;;;;;;5016811;28;20510;-21
2022/01/08 07:42:39;;;;;;;1.13;0.85;;;13.80;64.70;;;;;;5016442;28;20565;-22
2022/01/08 07:45:06;;;;;;;0.82;0.63;;;13.80;64.70;;;;;;5017094;28;20117;-21
2022/01/08 07:47:32;;;;;;;1.17;1.08;;;13.80;64.90;;;;;;5015929;28;20056;-22
2022/01/08 07:49:57;;;;;;;1.13;0.80;;;13.80;64.70;;;;;;5016245;28;20042;-22
2022/01/08 07:52:23;;;;;;;0.80;0.60;;;13.80;64.90;;;;;;5016901;28;20092;-21
2022/01/08 07:54:49;;;;;;;0.82;0.65;;;13.80;64.80;;;;;;5015738;28;20616;-22
2022/01/08 07:57:14;;;;;;;0.98;0.88;;;13.80;64.90;;;;;;5016224;28;20046;-23
2022/01/08 07:59:42;;;;;;;0.82;0.60;;;13.80;64.90;;;;;;5014633;28;20068;-22
2022/01/08 08:02:08;;;;;;;1.25;0.80;;;13.70;64.80;;;;;;5017441;28;20092;-22
2022/01/08 08:04:34;;;;;;;1.00;0.90;;;13.70;64.90;;;;;;5017359;28;20037;-22
2022/01/08 08:06:59;;;;;;;0.88;0.75;;;13.70;64.80;;;;;;5017950;28;20200;-21
2022/01/08 08:09:25;;;;;;;0.80;0.70;;;13.80;64.80;;;;;;5017388;28;20042;-19
2022/01/08 08:11:50;;;;;;;0.90;0.70;;;13.80;64.70;;;;;;5016996;28;20129;-21
2022/01/08 08:14:16;;;;;;;0.75;0.75;;;13.80;64.70;;;;;;5017800;28;20121;-21
2022/01/08 08:16:41;;;;;;;0.85;0.75;;;13.70;64.80;;;;;;5017032;28;20518;-21
2022/01/08 08:19:07;;;;;;;2.33;0.80;;;13.80;64.90;;;;;;5017131;28;20057;-20
2022/01/08 08:21:33;;;;;;;0.88;0.82;;;13.70;64.80;;;;;;5016748;28;20042;-20
2022/01/08 08:24:00;;;;;;;0.68;0.50;;;13.70;64.90;;;;;;5015352;28;20077;-23
2022/01/08 08:26:26;;;;;;;1.10;0.88;;;13.80;64.80;;;;;;5016258;28;20482;-20
2022/01/08 08:28:51;;;;;;;0.60;0.50;;;13.80;64.90;;;;;;5015678;28;20061;-21
2022/01/08 08:31:17;;;;;;;0.85;0.52;;;13.70;64.80;;;;;;5017112;28;20533;-22
2022/01/08 08:33:43;;;;;;;0.70;0.50;;;13.80;64.80;;;;;;5016555;28;20042;-22
2022/01/08 08:36:08;;;;;;;1.00;0.90;;;13.80;64.90;;;;;;5016894;28;20049;-23
2022/01/08 08:38:34;;;;;;;1.23;0.70;;;13.70;64.90;;;;;;5015502;28;20044;-23
2022/01/08 08:41:00;;;;;;;1.00;0.75;;;13.80;64.90;;;;;;5005024;28;20217;-22
2022/01/08 08:43:25;;;;;;;1.42;0.90;;;13.70;64.90;;;;;;4997258;28;20049;-22
2022/01/08 08:45:51;;;;;;;1.02;0.82;;;13.80;64.90;;;;;;4996807;28;20066;-22
2022/01/08 08:48:17;;;;;;;0.70;0.60;;;13.80;64.80;;;;;;4997437;28;20117;-21
2022/01/08 08:50:43;;;;;;;0.80;0.73;;;13.70;64.80;;;;;;4996725;28;20049;-23
2022/01/08 08:53:09;;;;;;;0.52;0.43;;;13.70;64.80;;;;;;4997460;28;20062;-21
2022/01/08 08:55:34;;;;;;;1.65;0.50;;;13.70;64.90;;;;;;4994401;28;20077;-22
2022/01/08 08:58:00;;;;;;;1.10;1.00;;;13.70;64.80;;;;;;4996807;28;20041;-21
2022/01/08 09:00:26;;;;;;;0.95;0.60;;;13.60;65.50;;;;;;4997295;28;20133;-22
2022/01/08 09:02:52;;;;;;;1.20;0.77;;;13.60;66.00;;;;;;4995708;28;20049;-22
2022/01/08 09:05:17;;;;;;;1.08;0.55;;;13.60;66.00;;;;;;4994863;28;20054;-21
2022/01/08 09:07:43;;;;;;;0.85;0.50;;;13.70;65.80;;;;;;4994679;28;20113;-22
2022/01/08 09:10:09;;;;;;;1.25;0.60;;;13.70;65.40;;;;;;4996562;28;20050;-19
2022/01/08 09:12:36;;;;;;;0.70;0.68;;;13.80;65.30;;;;;;4996187;28;20048;-20
2022/01/08 09:15:04;;;;;;;0.63;0.63;;;13.70;65.30;;;;;;4996529;28;20057;-23
2022/01/08 09:17:29;;;;;;;0.77;0.77;;;13.70;65.40;;;;;;4996824;28;20034;-22
2022/01/08 09:19:55;;;;;;;1.80;0.70;;;13.70;65.50;;;;;;4995670;28;20462;-21
2022/01/08 09:22:20;;;;;;;1.63;0.68;;;13.70;65.20;;;;;;4996794;28;20416;-22
2022/01/08 09:24:46;;;;;;;0.98;0.60;;;13.70;65.30;;;;;;4996113;28;20043;-23
2022/01/08 09:27:12;;;;;;;1.80;0.85;;;13.70;65.30;;;;;;4996754;28;20046;-23
2022/01/08 09:29:38;;;;;;;0.82;0.55;;;13.70;65.40;;;;;;4996151;28;20039;-22
2022/01/08 09:32:05;;;;;;;1.65;0.93;;;13.70;65.40;;;;;;5000449;28;20391;-23
2022/01/08 09:34:30;;;;;;;1.83;0.60;;;13.70;65.50;;;;;;5014845;28;20048;-22
2022/01/08 09:36:58;;;;;;;1.48;0.90;;;13.70;65.40;;;;;;5015654;28;20034;-22
2022/01/08 09:39:24;;;;;;;1.00;0.90;;;13.70;65.40;;;;;;5015078;28;20044;-20
2022/01/08 09:41:49;;;;;;;0.93;0.80;;;13.70;65.20;;;;;;5015398;28;20108;-20
2022/01/08 09:44:15;;;;;;;1.30;0.80;;;13.70;65.20;;;;;;5016147;28;20118;-22
2022/01/08 09:46:40;;;;;;;1.08;0.70;;;13.70;65.20;;;;;;5015288;28;20062;-19
2022/01/08 09:49:06;;;;;;;0.90;0.70;;;13.70;65.20;;;;;;5015847;28;20049;-23
2022/01/08 09:51:32;;;;;;;1.15;0.82;;;13.70;65.10;;;;;;5016061;28;20549;-20
2022/01/08 09:53:57;;;;;;;1.38;0.80;;;13.70;65.90;;;;;;5015192;28;20053;-22
2022/01/08 09:56:25;;;;;;;1.58;0.98;;;13.70;65.40;;;;;;5015858;28;20038;-22
2022/01/08 09:58:51;;;;;;;1.50;1.20;;;13.70;65.40;;;;;;5013893;28;20046;-22
2022/01/08 10:01:27;;;;;;;1.00;0.90;;;13.70;65.30;;;;;;5015865;28;20041;-22
2022/01/08 10:03:53;;;;;;;2.03;1.10;;;13.70;65.30;;;;;;5013771;28;20048;-20
2022/01/08 10:06:23;;;;;;;1.08;0.70;;;13.70;65.10;;;;;;5014402;28;20046;-21
2022/01/08 10:08:49;;;;;;;1.05;0.82;;;13.70;65.10;;;;;;5014357;28;20053;-21
2022/01/08 10:11:14;;;;;;;1.02;0.90;;;13.80;65.20;;;;;;5015724;28;20038;-21
2022/01/08 10:13:41;;;;;;;1.25;0.80;;;13.80;65.20;;;;;;5015758;28;20092;-23
2022/01/08 10:18:58;;;;;;;0.90;0.80;;;13.80;65.10;;;;;;5014101;28;20111;-21
2022/01/08 10:21:26;;;;;;;1.50;1.15;;;13.70;65.30;;;;;;5012972;28;20057;-22
2022/01/08 10:24:04;;;;;;;1.60;0.82;;;13.60;65.40;;;;;;5012182;28;20042;-21
2022/01/08 10:26:31;;;;;;;0.88;0.88;;;13.70;65.50;;;;;;5014084;28;20046;-22
2022/01/08 10:29:10;;;;;;;1.10;0.90;;;13.70;65.40;;;;;;5013725;28;20034;-24
2022/01/08 10:31:40;;;;;;;0.90;0.65;;;13.70;65.30;;;;;;5014499;28;20477;-21
2022/01/08 10:34:07;;;;;;;1.10;0.60;;;13.70;65.40;;;;;;4998216;28;20045;-22
2022/01/08 10:36:55;;;;;;;1.17;0.82;;;13.70;65.40;;;;;;5014990;28;20041;-22
2022/01/08 10:39:25;;;;;;;1.25;0.80;;;13.70;65.40;;;;;;5012484;28;20041;-22
2022/01/08 10:41:52;;;;;;;0.93;0.50;;;13.70;65.50;;;;;;5012549;28;20053;-21
2022/01/08 10:44:21;;;;;;;1.08;0.82;;;13.60;65.50;;;;;;5015069;28;20045;-21
2022/01/08 10:46:56;;;;;;;0.80;0.68;;;13.70;65.50;;;;;;5013581;28;20075;-22
2022/01/08 10:49:36;;;;;;;1.08;0.80;;;13.70;65.40;;;;;;5013450;28;20038;-23
2022/01/08 10:52:09;;;;;;;0.80;0.50;;;13.70;65.50;;;;;;5016707;28;20399;-22
2022/01/08 10:54:39;;;;;;;0.88;0.60;;;13.70;65.30;;;;;;5018634;28;20034;-21
2022/01/08 10:57:07;;;;;;;0.73;0.65;;;13.70;65.60;;;;;;5018122;28;20069;-22
2022/01/08 10:59:32;;;;;;;1.25;0.70;;;13.70;65.50;;;;;;5017342;28;20049;-23
2022/01/08 11:02:03;;;;;;;1.50;0.90;;;13.70;65.50;;;;;;5017836;28;20042;-23
2022/01/08 11:04:48;;;;;;;0.68;0.57;;;13.70;65.50;;;;;;5018166;28;20069;-21
2022/01/08 11:07:23;;;;;;;0.68;0.60;;;13.70;65.60;;;;;;5016247;28;20499;-22
2022/01/08 11:09:51;;;;;;;1.80;0.90;;;13.70;65.50;;;;;;5015973;28;20523;-21
2022/01/08 11:12:25;;;;;;;0.80;0.70;;;13.70;65.40;;;;;;5010523;28;20052;-20
2022/01/08 11:17:17;;;;;;;1.10;0.70;;;13.70;65.60;;;;;;5016874;28;20042;-21
2022/01/08 11:19:46;;;;;;;0.85;0.63;;;13.70;65.50;;;;;;5017343;28;20497;-20
2022/01/08 11:22:13;;;;;;;1.10;0.70;;;13.60;65.50;;;;;;5014966;28;20053;-20
2022/01/08 11:24:50;;;;;;;0.80;0.50;;;13.70;65.60;;;;;;5017316;28;20049;-21
2022/01/08 11:27:19;;;;;;;0.70;0.50;;;13.70;65.60;;;;;;5011265;28;20042;-22
2022/01/08 11:29:44;;;;;;;0.80;0.70;;;13.60;65.50;;;;;;5006809;28;20050;-21
2022/01/08 11:32:10;;;;;;;0.65;0.57;;;13.70;65.50;;;;;;4996578;28;20047;-19
2022/01/08 11:34:38;;;;;;;0.52;0.40;;;13.70;65.50;;;;;;4997072;28;20122;-19
2022/01/08 11:37:03;;;;;;;1.23;0.80;;;13.70;65.50;;;;;;5012432;28;20046;-19
2022/01/08 11:39:29;;;;;;;1.50;0.80;;;13.70;65.50;;;;;;4996741;28;20049;-22
2022/01/08 11:41:55;;;;;;;0.80;0.50;;;13.70;65.60;;;;;;4995858;28;20474;-22
2022/01/08 11:44:21;;;;;;;1.52;0.82;;;13.60;65.90;;;;;;4998221;28;20101;-22
2022/01/08 11:46:47;;;;;;;1.30;0.82;;;13.70;65.70;;;;;;4997768;28;20046;-22
2022/01/08 11:49:13;;;;;;;0.90;0.68;;;13.60;65.60;;;;;;5012565;28;20034;-19
2022/01/08 11:51:39;;;;;;;1.38;0.65;;;13.60;65.60;;;;;;5012869;28;20488;-20
2022/01/08 11:54:06;;;;;;;0.63;0.55;;;13.60;65.70;;;;;;4996687;28;20053;-20
2022/01/08 11:56:34;;;;;;;0.77;0.60;;;13.70;65.60;;;;;;4997032;28;20049;-22
2022/01/08 11:59:05;;;;;;;0.70;0.68;;;13.60;65.60;;;;;;4990579;28;20038;-23
2022/01/08 12:01:31;;;;;;;1.33;0.70;;;13.70;65.60;;;;;;4995906;28;20043;-21
2022/01/08 12:03:56;;;;;;;1.02;0.60;;;13.70;65.70;;;;;;4995614;28;20092;-22
2022/01/08 12:06:30;;;;;;;1.15;0.70;;;13.60;65.70;;;;;;4997435;28;20133;-21
2022/01/08 12:09:23;;;;;;;0.77;0.63;;;13.60;65.60;;;;;;4995691;28;20141;-22
2022/01/08 12:12:00;;;;;;;1.02;0.80;;;13.60;65.90;;;;;;4991148;28;20046;-23
2022/01/08 12:14:28;;;;;;;0.52;0.40;;;13.60;65.90;;;;;;4997647;28;20062;-21
2022/01/08 12:16:58;;;;;;;1.10;0.73;;;13.60;65.90;;;;;;4984711;28;20046;-21
2022/01/08 12:19:26;;;;;;;0.82;0.60;;;13.60;65.80;;;;;;4997376;28;20046;-22
2022/01/08 12:21:52;;;;;;;0.77;0.60;;;13.60;65.90;;;;;;4994166;28;20030;-24
2022/01/08 12:24:27;;;;;;;1.10;0.57;;;13.60;65.70;;;;;;5009259;28;20050;-23
2022/01/08 12:26:53;;;;;;;0.90;0.60;;;13.60;65.70;;;;;;4995818;28;20042;-21
2022/01/08 12:29:38;;;;;;;0.55;0.50;;;13.70;65.60;;;;;;4997369;28;20038;-22
2022/01/08 12:35:37;;;;;;;0.82;0.80;;;13.60;65.70;;;;;;4996428;28;20045;-21
2022/01/08 12:38:05;;;;;;;0.80;0.70;;;13.70;65.70;;;;;;5004051;28;20037;-20
2022/01/08 12:40:36;;;;;;;1.67;0.88;;;13.70;65.60;;;;;;5015535;28;20046;-21
2022/01/08 12:43:24;;;;;;;1.30;0.60;;;13.70;65.60;;;;;;5014760;28;20113;-22
2022/01/08 12:45:50;;;;;;;0.82;0.68;;;13.70;65.60;;;;;;5014418;28;20037;-23
2022/01/08 12:48:17;;;;;;;1.23;0.65;;;13.70;65.80;;;;;;5019036;28;20035;-21
2022/01/08 12:50:42;;;;;;;1.10;0.65;;;13.70;65.80;;;;;;4981927;28;20064;-22
2022/01/08 12:53:12;;;;;;;0.70;0.70;;;13.60;65.90;;;;;;4996076;28;20146;-20
2022/01/08 12:55:56;;;;;;;1.00;0.90;;;13.60;66.00;;;;;;4996766;28;20057;-22
2022/01/08 12:58:25;;;;;;;0.98;0.40;;;13.60;65.80;;;;;;5014814;28;20038;-22
2022/01/08 13:01:01;;;;;;;0.95;0.95;;;13.70;65.80;;;;;;5014638;28;20045;-23
2022/01/08 13:03:31;;;;;;;0.65;0.60;;;13.60;65.90;;;;;;5015485;28;20057;-22
2022/01/08 13:06:02;;;;;;;0.98;0.50;;;13.60;66.10;;;;;;5015650;28;20038;-22
2022/01/08 13:08:32;;;;;;;0.93;0.80;;;13.60;66.10;;;;;;5014714;28;20056;-22
2022/01/08 13:11:00;;;;;;;0.80;0.73;;;13.60;65.80;;;;;;5012757;28;20054;-20
2022/01/08 13:13:45;;;;;;;0.90;0.75;;;13.60;65.90;;;;;;5015048;28;20050;-20